sensor_id;sensor_type;location;lat;lon;timestamp;P1;durP1;ratioP1;P2;durP2;ratioP2
21754;SDS011;11039;50.028;19.938;2023-04-15T00:01:19;2.33;;;1.20;;
21754;SDS011;11039;50.028;19.938;2023-04-15T00:03:45;1.52;;;1.20;;
21754;SDS011;11039;50.028;19.938;2023-04-15T00:06:11;2.22;;;1.30;;
21754;SDS011;11039;50.028;19.938;2023-04-15T00:08:38;1.55;;;1.15;;
21754;SDS011;11039;50.028;19.938;2023-04-15T00:11:04;2.05;;;1.20;;
21754;SDS011;11039;50.028;19.938;2023-04-15T00:13:30;1.95;;;1.20;;
21754;SDS011;11039;50.028;19.938;2023-04-15T00:15:58;1.85;;;1.13;;
21754;SDS011;11039;50.028;19.938;2023-04-15T00:18:24;1.40;;;1.10;;
21754;SDS011;11039;50.028;19.938;2023-04-15T00:20:50;1.10;;;0.85;;
21754;SDS011;11039;50.028;19.938;2023-04-15T00:23:17;1.50;;;1.20;;
21754;SDS011;11039;50.028;19.938;2023-04-15T00:25:43;1.50;;;1.10;;
21754;SDS011;11039;50.028;19.938;2023-04-15T00:28:09;1.20;;;1.00;;
21754;SDS011;11039;50.028;19.938;2023-04-15T00:30:35;1.58;;;1.20;;
21754;SDS011;11039;50.028;19.938;2023-04-15T00:33:02;1.60;;;1.00;;
21754;SDS011;11039;50.028;19.938;2023-04-15T00:35:28;1.80;;;1.30;;
21754;SDS011;11039;50.028;19.938;2023-04-15T00:37:56;1.75;;;1.10;;
21754;SDS011;11039;50.028;19.938;2023-04-15T00:40:22;1.88;;;1.13;;
21754;SDS011;11039;50.028;19.938;2023-04-15T00:42:49;1.20;;;1.10;;
21754;SDS011;11039;50.028;19.938;2023-04-15T00:45:15;1.02;;;0.82;;
21754;SDS011;11039;50.028;19.938;2023-04-15T00:47:42;2.00;;;1.00;;
21754;SDS011;11039;50.028;19.938;2023-04-15T00:50:08;1.23;;;1.00;;
21754;SDS011;11039;50.028;19.938;2023-04-15T00:52:35;1.67;;;1.10;;
21754;SDS011;11039;50.028;19.938;2023-04-15T00:55:01;2.40;;;1.00;;
21754;SDS011;11039;50.028;19.938;2023-04-15T00:57:28;1.35;;;0.90;;
21754;SDS011;11039;50.028;19.938;2023-04-15T00:59:54;1.10;;;1.00;;
21754;SDS011;11039;50.028;19.938;2023-04-15T01:02:21;1.48;;;0.80;;
21754;SDS011;11039;50.028;19.938;2023-04-15T01:04:47;1.60;;;1.08;;
21754;SDS011;11039;50.028;19.938;2023-04-15T01:07:14;0.80;;;0.80;;
21754;SDS011;11039;50.028;19.938;2023-04-15T01:09:40;1.42;;;0.90;;
21754;SDS011;11039;50.028;19.938;2023-04-15T01:12:06;1.60;;;1.00;;
21754;SDS011;11039;50.028;19.938;2023-04-15T01:14:34;1.33;;;1.00;;
21754;SDS011;11039;50.028;19.938;2023-04-15T01:17:00;1.23;;;1.10;;
21754;SDS011;11039;50.028;19.938;2023-04-15T01:19:27;1.15;;;0.90;;
21754;SDS011;11039;50.028;19.938;2023-04-15T01:21:53;1.73;;;1.15;;
21754;SDS011;11039;50.028;19.938;2023-04-15T01:24:20;1.10;;;0.88;;
21754;SDS011;11039;50.028;19.938;2023-04-15T01:26:46;1.08;;;0.98;;
21754;SDS011;11039;50.028;19.938;2023-04-15T01:29:13;1.20;;;0.90;;
21754;SDS011;11039;50.028;19.938;2023-04-15T01:31:40;1.13;;;0.90;;
21754;SDS011;11039;50.028;19.938;2023-04-15T01:34:06;1.15;;;0.90;;
21754;SDS011;11039;50.028;19.938;2023-04-15T01:36:32;1.00;;;0.80;;
21754;SDS011;11039;50.028;19.938;2023-04-15T01:38:58;0.93;;;0.80;;
21754;SDS011;11039;50.028;19.938;2023-04-15T01:41:25;0.82;;;0.70;;
21754;SDS011;11039;50.028;19.938;2023-04-15T01:43:52;1.10;;;0.82;;
21754;SDS011;11039;50.028;19.938;2023-04-15T01:46:18;1.27;;;0.90;;
21754;SDS011;11039;50.028;19.938;2023-04-15T01:48:44;1.25;;;0.77;;
21754;SDS011;11039;50.028;19.938;2023-04-15T01:51:10;1.02;;;0.88;;
21754;SDS011;11039;50.028;19.938;2023-04-15T01:53:36;0.70;;;0.70;;
21754;SDS011;11039;50.028;19.938;2023-04-15T01:56:03;1.55;;;0.80;;
21754;SDS011;11039;50.028;19.938;2023-04-15T01:58:29;1.25;;;0.80;;
21754;SDS011;11039;50.028;19.938;2023-04-15T02:00:55;0.75;;;0.70;;
21754;SDS011;11039;50.028;19.938;2023-04-15T02:03:21;0.95;;;0.75;;
21754;SDS011;11039;50.028;19.938;2023-04-15T02:05:47;1.02;;;0.70;;
21754;SDS011;11039;50.028;19.938;2023-04-15T02:08:15;0.80;;;0.70;;
21754;SDS011;11039;50.028;19.938;2023-04-15T02:10:41;0.93;;;0.70;;
21754;SDS011;11039;50.028;19.938;2023-04-15T02:13:07;0.90;;;0.70;;
21754;SDS011;11039;50.028;19.938;2023-04-15T02:15:34;0.80;;;0.70;;
21754;SDS011;11039;50.028;19.938;2023-04-15T02:18:01;0.90;;;0.75;;
21754;SDS011;11039;50.028;19.938;2023-04-15T02:20:27;1.05;;;0.70;;
21754;SDS011;11039;50.028;19.938;2023-04-15T02:22:54;1.35;;;0.60;;
21754;SDS011;11039;50.028;19.938;2023-04-15T02:25:21;0.65;;;0.65;;
21754;SDS011;11039;50.028;19.938;2023-04-15T02:27:47;0.85;;;0.65;;
21754;SDS011;11039;50.028;19.938;2023-04-15T02:30:13;0.95;;;0.60;;
21754;SDS011;11039;50.028;19.938;2023-04-15T02:32:39;0.90;;;0.70;;
21754;SDS011;11039;50.028;19.938;2023-04-15T02:35:08;0.80;;;0.63;;
21754;SDS011;11039;50.028;19.938;2023-04-15T02:37:35;1.58;;;0.57;;
21754;SDS011;11039;50.028;19.938;2023-04-15T02:40:07;1.42;;;0.77;;
21754;SDS011;11039;50.028;19.938;2023-04-15T02:42:40;1.02;;;0.77;;
21754;SDS011;11039;50.028;19.938;2023-04-15T02:45:07;1.05;;;0.68;;
21754;SDS011;11039;50.028;19.938;2023-04-15T02:47:33;0.80;;;0.70;;
21754;SDS011;11039;50.028;19.938;2023-04-15T02:50:01;0.93;;;0.70;;
21754;SDS011;11039;50.028;19.938;2023-04-15T02:52:27;1.17;;;0.70;;
21754;SDS011;11039;50.028;19.938;2023-04-15T02:54:53;0.70;;;0.68;;
21754;SDS011;11039;50.028;19.938;2023-04-15T02:57:24;1.00;;;0.60;;
21754;SDS011;11039;50.028;19.938;2023-04-15T02:59:50;0.60;;;0.60;;
21754;SDS011;11039;50.028;19.938;2023-04-15T03:05:04;1.15;;;0.65;;
21754;SDS011;11039;50.028;19.938;2023-04-15T03:07:31;1.85;;;0.60;;
21754;SDS011;11039;50.028;19.938;2023-04-15T03:09:57;1.05;;;0.70;;
21754;SDS011;11039;50.028;19.938;2023-04-15T03:12:23;0.85;;;0.70;;
21754;SDS011;11039;50.028;19.938;2023-04-15T03:14:49;0.77;;;0.52;;
21754;SDS011;11039;50.028;19.938;2023-04-15T03:17:15;0.82;;;0.60;;
21754;SDS011;11039;50.028;19.938;2023-04-15T03:22:08;0.70;;;0.50;;
21754;SDS011;11039;50.028;19.938;2023-04-15T03:24:34;0.60;;;0.50;;
21754;SDS011;11039;50.028;19.938;2023-04-15T03:27:00;0.63;;;0.55;;
21754;SDS011;11039;50.028;19.938;2023-04-15T03:29:26;0.93;;;0.68;;
21754;SDS011;11039;50.028;19.938;2023-04-15T03:31:52;2.28;;;0.68;;
21754;SDS011;11039;50.028;19.938;2023-04-15T03:34:18;0.65;;;0.60;;
21754;SDS011;11039;50.028;19.938;2023-04-15T03:36:45;0.90;;;0.65;;
21754;SDS011;11039;50.028;19.938;2023-04-15T03:39:11;1.65;;;0.73;;
21754;SDS011;11039;50.028;19.938;2023-04-15T03:41:37;0.65;;;0.50;;
21754;SDS011;11039;50.028;19.938;2023-04-15T03:44:03;1.00;;;0.60;;
21754;SDS011;11039;50.028;19.938;2023-04-15T03:46:29;0.63;;;0.60;;
21754;SDS011;11039;50.028;19.938;2023-04-15T03:48:55;0.88;;;0.60;;
21754;SDS011;11039;50.028;19.938;2023-04-15T03:51:21;0.80;;;0.80;;
21754;SDS011;11039;50.028;19.938;2023-04-15T03:53:48;0.85;;;0.50;;
21754;SDS011;11039;50.028;19.938;2023-04-15T03:56:14;0.93;;;0.60;;
21754;SDS011;11039;50.028;19.938;2023-04-15T03:58:40;1.23;;;0.65;;
21754;SDS011;11039;50.028;19.938;2023-04-15T04:01:06;0.70;;;0.60;;
21754;SDS011;11039;50.028;19.938;2023-04-15T04:03:32;0.77;;;0.70;;
21754;SDS011;11039;50.028;19.938;2023-04-15T04:05:58;0.70;;;0.50;;
21754;SDS011;11039;50.028;19.938;2023-04-15T04:08:24;0.80;;;0.60;;
21754;SDS011;11039;50.028;19.938;2023-04-15T04:10:51;5.45;;;0.80;;
21754;SDS011;11039;50.028;19.938;2023-04-15T04:13:17;1.10;;;0.70;;
21754;SDS011;11039;50.028;19.938;2023-04-15T04:15:43;3.05;;;0.60;;
21754;SDS011;11039;50.028;19.938;2023-04-15T04:18:09;1.10;;;0.65;;
21754;SDS011;11039;50.028;19.938;2023-04-15T04:20:35;1.58;;;0.70;;
21754;SDS011;11039;50.028;19.938;2023-04-15T04:23:01;0.90;;;0.60;;
21754;SDS011;11039;50.028;19.938;2023-04-15T04:25:27;3.28;;;0.80;;
21754;SDS011;11039;50.028;19.938;2023-04-15T04:27:53;4.68;;;0.80;;
21754;SDS011;11039;50.028;19.938;2023-04-15T04:30:20;2.30;;;0.80;;
21754;SDS011;11039;50.028;19.938;2023-04-15T04:32:46;3.28;;;0.70;;
21754;SDS011;11039;50.028;19.938;2023-04-15T04:35:12;1.73;;;0.80;;
21754;SDS011;11039;50.028;19.938;2023-04-15T04:37:38;1.83;;;1.02;;
21754;SDS011;11039;50.028;19.938;2023-04-15T04:40:04;1.77;;;0.40;;
21754;SDS011;11039;50.028;19.938;2023-04-15T04:42:30;1.23;;;0.70;;
21754;SDS011;11039;50.028;19.938;2023-04-15T04:44:56;1.40;;;0.80;;
21754;SDS011;11039;50.028;19.938;2023-04-15T04:47:22;2.33;;;0.88;;
21754;SDS011;11039;50.028;19.938;2023-04-15T04:49:49;1.25;;;0.82;;
21754;SDS011;11039;50.028;19.938;2023-04-15T04:52:15;1.08;;;0.70;;
21754;SDS011;11039;50.028;19.938;2023-04-15T04:54:41;1.23;;;0.60;;
21754;SDS011;11039;50.028;19.938;2023-04-15T04:57:07;3.40;;;0.80;;
21754;SDS011;11039;50.028;19.938;2023-04-15T04:59:33;1.40;;;0.70;;
21754;SDS011;11039;50.028;19.938;2023-04-15T05:01:59;3.42;;;0.80;;
21754;SDS011;11039;50.028;19.938;2023-04-15T05:04:25;0.80;;;0.60;;
21754;SDS011;11039;50.028;19.938;2023-04-15T05:06:51;2.13;;;0.70;;
21754;SDS011;11039;50.028;19.938;2023-04-15T05:09:17;1.00;;;0.60;;
21754;SDS011;11039;50.028;19.938;2023-04-15T05:11:43;2.72;;;0.77;;
21754;SDS011;11039;50.028;19.938;2023-04-15T05:14:09;0.90;;;0.60;;
21754;SDS011;11039;50.028;19.938;2023-04-15T05:16:35;1.35;;;0.85;;
21754;SDS011;11039;50.028;19.938;2023-04-15T05:19:01;1.85;;;0.82;;
21754;SDS011;11039;50.028;19.938;2023-04-15T05:21:27;0.90;;;0.75;;
21754;SDS011;11039;50.028;19.938;2023-04-15T05:23:53;1.65;;;0.80;;
21754;SDS011;11039;50.028;19.938;2023-04-15T05:26:19;1.63;;;0.95;;
21754;SDS011;11039;50.028;19.938;2023-04-15T05:28:46;1.55;;;0.90;;
21754;SDS011;11039;50.028;19.938;2023-04-15T05:31:12;1.58;;;0.70;;
21754;SDS011;11039;50.028;19.938;2023-04-15T05:33:38;1.27;;;0.80;;
21754;SDS011;11039;50.028;19.938;2023-04-15T05:36:04;2.33;;;0.70;;
21754;SDS011;11039;50.028;19.938;2023-04-15T05:38:31;2.17;;;1.00;;
21754;SDS011;11039;50.028;19.938;2023-04-15T05:40:57;1.42;;;0.90;;
21754;SDS011;11039;50.028;19.938;2023-04-15T05:43:23;0.90;;;0.65;;
21754;SDS011;11039;50.028;19.938;2023-04-15T05:45:49;1.33;;;0.80;;
21754;SDS011;11039;50.028;19.938;2023-04-15T05:48:15;0.95;;;0.85;;
21754;SDS011;11039;50.028;19.938;2023-04-15T05:50:41;2.88;;;0.70;;
21754;SDS011;11039;50.028;19.938;2023-04-15T05:53:07;1.20;;;0.70;;
21754;SDS011;11039;50.028;19.938;2023-04-15T05:55:34;1.33;;;0.80;;
21754;SDS011;11039;50.028;19.938;2023-04-15T05:58:00;1.52;;;0.60;;
21754;SDS011;11039;50.028;19.938;2023-04-15T06:00:27;1.40;;;0.75;;
21754;SDS011;11039;50.028;19.938;2023-04-15T06:02:54;1.30;;;0.65;;
21754;SDS011;11039;50.028;19.938;2023-04-15T06:05:20;0.55;;;0.50;;
21754;SDS011;11039;50.028;19.938;2023-04-15T06:07:47;1.25;;;0.70;;
21754;SDS011;11039;50.028;19.938;2023-04-15T06:10:13;1.98;;;1.00;;
21754;SDS011;11039;50.028;19.938;2023-04-15T06:12:40;1.00;;;0.80;;
21754;SDS011;11039;50.028;19.938;2023-04-15T06:15:06;1.13;;;0.63;;
21754;SDS011;11039;50.028;19.938;2023-04-15T06:17:34;1.02;;;0.73;;
21754;SDS011;11039;50.028;19.938;2023-04-15T06:20:00;2.15;;;0.70;;
21754;SDS011;11039;50.028;19.938;2023-04-15T06:22:27;1.60;;;0.85;;
21754;SDS011;11039;50.028;19.938;2023-04-15T06:24:53;1.45;;;0.77;;
21754;SDS011;11039;50.028;19.938;2023-04-15T06:27:19;1.67;;;1.00;;
21754;SDS011;11039;50.028;19.938;2023-04-15T06:29:45;1.45;;;0.80;;
21754;SDS011;11039;50.028;19.938;2023-04-15T06:32:11;1.45;;;0.73;;
21754;SDS011;11039;50.028;19.938;2023-04-15T06:34:37;2.22;;;1.08;;
21754;SDS011;11039;50.028;19.938;2023-04-15T06:37:03;0.88;;;0.77;;
21754;SDS011;11039;50.028;19.938;2023-04-15T06:39:29;2.42;;;0.88;;
21754;SDS011;11039;50.028;19.938;2023-04-15T06:41:55;2.85;;;0.90;;
21754;SDS011;11039;50.028;19.938;2023-04-15T06:44:21;0.90;;;0.80;;
21754;SDS011;11039;50.028;19.938;2023-04-15T06:46:47;1.30;;;0.90;;
21754;SDS011;11039;50.028;19.938;2023-04-15T06:49:13;1.33;;;0.82;;
21754;SDS011;11039;50.028;19.938;2023-04-15T06:51:41;1.60;;;0.80;;
21754;SDS011;11039;50.028;19.938;2023-04-15T06:54:07;1.60;;;1.00;;
21754;SDS011;11039;50.028;19.938;2023-04-15T06:56:33;1.67;;;1.17;;
21754;SDS011;11039;50.028;19.938;2023-04-15T06:58:59;1.20;;;0.80;;
21754;SDS011;11039;50.028;19.938;2023-04-15T07:01:26;3.15;;;1.13;;
21754;SDS011;11039;50.028;19.938;2023-04-15T07:03:52;1.40;;;0.88;;
21754;SDS011;11039;50.028;19.938;2023-04-15T07:06:18;1.85;;;0.90;;
21754;SDS011;11039;50.028;19.938;2023-04-15T07:08:44;1.90;;;1.00;;
21754;SDS011;11039;50.028;19.938;2023-04-15T07:11:10;1.58;;;0.90;;
21754;SDS011;11039;50.028;19.938;2023-04-15T07:13:36;2.28;;;0.88;;
21754;SDS011;11039;50.028;19.938;2023-04-15T07:16:02;1.60;;;0.80;;
21754;SDS011;11039;50.028;19.938;2023-04-15T07:18:28;1.60;;;0.85;;
21754;SDS011;11039;50.028;19.938;2023-04-15T07:20:54;1.10;;;0.80;;
21754;SDS011;11039;50.028;19.938;2023-04-15T07:23:21;1.00;;;0.80;;
21754;SDS011;11039;50.028;19.938;2023-04-15T07:25:47;1.83;;;1.00;;
21754;SDS011;11039;50.028;19.938;2023-04-15T07:28:13;1.88;;;1.10;;
21754;SDS011;11039;50.028;19.938;2023-04-15T07:30:40;1.58;;;0.93;;
21754;SDS011;11039;50.028;19.938;2023-04-15T07:33:06;1.60;;;1.02;;
21754;SDS011;11039;50.028;19.938;2023-04-15T07:35:32;1.35;;;0.80;;
21754;SDS011;11039;50.028;19.938;2023-04-15T07:37:58;1.85;;;1.10;;
21754;SDS011;11039;50.028;19.938;2023-04-15T07:40:24;1.40;;;1.00;;
21754;SDS011;11039;50.028;19.938;2023-04-15T07:42:50;1.42;;;0.93;;
21754;SDS011;11039;50.028;19.938;2023-04-15T07:45:16;1.63;;;1.10;;
21754;SDS011;11039;50.028;19.938;2023-04-15T07:47:42;2.53;;;1.20;;
21754;SDS011;11039;50.028;19.938;2023-04-15T07:50:08;1.70;;;0.93;;
21754;SDS011;11039;50.028;19.938;2023-04-15T07:52:38;2.38;;;1.10;;
21754;SDS011;11039;50.028;19.938;2023-04-15T07:55:05;1.30;;;0.88;;
21754;SDS011;11039;50.028;19.938;2023-04-15T07:57:32;1.30;;;0.85;;
21754;SDS011;11039;50.028;19.938;2023-04-15T07:59:59;2.38;;;1.20;;
21754;SDS011;11039;50.028;19.938;2023-04-15T08:02:25;2.22;;;1.15;;
21754;SDS011;11039;50.028;19.938;2023-04-15T08:04:51;2.95;;;1.23;;
21754;SDS011;11039;50.028;19.938;2023-04-15T08:07:18;1.23;;;0.80;;
21754;SDS011;11039;50.028;19.938;2023-04-15T08:09:44;2.88;;;1.23;;
21754;SDS011;11039;50.028;19.938;2023-04-15T08:12:10;2.42;;;1.27;;
21754;SDS011;11039;50.028;19.938;2023-04-15T08:14:37;1.40;;;0.85;;
21754;SDS011;11039;50.028;19.938;2023-04-15T08:17:04;2.00;;;0.98;;
21754;SDS011;11039;50.028;19.938;2023-04-15T08:19:30;1.80;;;0.95;;
21754;SDS011;11039;50.028;19.938;2023-04-15T08:21:56;1.85;;;1.00;;
21754;SDS011;11039;50.028;19.938;2023-04-15T08:24:23;8.80;;;1.40;;
21754;SDS011;11039;50.028;19.938;2023-04-15T08:26:50;1.65;;;1.20;;
21754;SDS011;11039;50.028;19.938;2023-04-15T08:29:16;2.60;;;1.40;;
21754;SDS011;11039;50.028;19.938;2023-04-15T08:31:42;1.75;;;1.38;;
21754;SDS011;11039;50.028;19.938;2023-04-15T08:34:10;2.55;;;1.50;;
21754;SDS011;11039;50.028;19.938;2023-04-15T08:36:36;2.13;;;1.50;;
21754;SDS011;11039;50.028;19.938;2023-04-15T08:39:02;2.30;;;1.58;;
21754;SDS011;11039;50.028;19.938;2023-04-15T08:41:31;2.95;;;1.50;;
21754;SDS011;11039;50.028;19.938;2023-04-15T08:44:03;3.28;;;1.48;;
21754;SDS011;11039;50.028;19.938;2023-04-15T08:46:30;2.70;;;1.52;;
21754;SDS011;11039;50.028;19.938;2023-04-15T08:48:59;2.78;;;1.65;;
21754;SDS011;11039;50.028;19.938;2023-04-15T08:51:25;3.72;;;1.75;;
21754;SDS011;11039;50.028;19.938;2023-04-15T08:53:51;2.65;;;1.60;;
21754;SDS011;11039;50.028;19.938;2023-04-15T08:56:17;2.47;;;1.55;;
21754;SDS011;11039;50.028;19.938;2023-04-15T08:58:44;2.10;;;1.40;;
21754;SDS011;11039;50.028;19.938;2023-04-15T09:01:11;3.53;;;1.60;;
21754;SDS011;11039;50.028;19.938;2023-04-15T09:03:38;2.90;;;1.90;;
21754;SDS011;11039;50.028;19.938;2023-04-15T09:06:04;2.30;;;1.60;;
21754;SDS011;11039;50.028;19.938;2023-04-15T09:08:31;2.28;;;1.67;;
21754;SDS011;11039;50.028;19.938;2023-04-15T09:10:58;2.13;;;1.30;;
21754;SDS011;11039;50.028;19.938;2023-04-15T09:13:24;4.15;;;1.80;;
21754;SDS011;11039;50.028;19.938;2023-04-15T09:15:50;3.70;;;1.90;;
21754;SDS011;11039;50.028;19.938;2023-04-15T09:18:26;3.10;;;1.65;;
21754;SDS011;11039;50.028;19.938;2023-04-15T09:20:53;3.42;;;1.60;;
21754;SDS011;11039;50.028;19.938;2023-04-15T09:23:19;2.03;;;1.60;;
21754;SDS011;11039;50.028;19.938;2023-04-15T09:25:45;2.72;;;1.50;;
21754;SDS011;11039;50.028;19.938;2023-04-15T09:28:13;2.60;;;1.55;;
21754;SDS011;11039;50.028;19.938;2023-04-15T09:30:41;4.70;;;1.70;;
21754;SDS011;11039;50.028;19.938;2023-04-15T09:33:13;3.00;;;1.88;;
21754;SDS011;11039;50.028;19.938;2023-04-15T09:35:39;2.65;;;1.55;;
21754;SDS011;11039;50.028;19.938;2023-04-15T09:38:06;2.47;;;1.48;;
21754;SDS011;11039;50.028;19.938;2023-04-15T09:40:37;1.05;;;0.98;;
21754;SDS011;11039;50.028;19.938;2023-04-15T09:43:04;2.42;;;0.80;;
21754;SDS011;11039;50.028;19.938;2023-04-15T09:45:31;1.05;;;0.63;;
21754;SDS011;11039;50.028;19.938;2023-04-15T09:47:58;2.83;;;1.25;;
21754;SDS011;11039;50.028;19.938;2023-04-15T09:50:28;1.27;;;0.80;;
21754;SDS011;11039;50.028;19.938;2023-04-15T09:52:54;2.08;;;1.02;;
21754;SDS011;11039;50.028;19.938;2023-04-15T09:55:20;0.77;;;0.70;;
21754;SDS011;11039;50.028;19.938;2023-04-15T09:57:46;1.53;;;0.77;;
21754;SDS011;11039;50.028;19.938;2023-04-15T10:00:13;0.60;;;0.60;;
21754;SDS011;11039;50.028;19.938;2023-04-15T10:02:40;2.05;;;0.70;;
21754;SDS011;11039;50.028;19.938;2023-04-15T10:05:06;0.73;;;0.60;;
21754;SDS011;11039;50.028;19.938;2023-04-15T10:07:35;0.95;;;0.70;;
21754;SDS011;11039;50.028;19.938;2023-04-15T10:10:01;2.08;;;0.70;;
21754;SDS011;11039;50.028;19.938;2023-04-15T10:12:28;1.15;;;0.70;;
21754;SDS011;11039;50.028;19.938;2023-04-15T10:14:58;0.85;;;0.50;;
21754;SDS011;11039;50.028;19.938;2023-04-15T10:17:26;1.02;;;0.57;;
21754;SDS011;11039;50.028;19.938;2023-04-15T10:19:53;1.48;;;0.57;;
21754;SDS011;11039;50.028;19.938;2023-04-15T10:22:21;1.58;;;0.80;;
21754;SDS011;11039;50.028;19.938;2023-04-15T10:24:47;1.10;;;0.60;;
21754;SDS011;11039;50.028;19.938;2023-04-15T10:27:14;3.05;;;0.50;;
21754;SDS011;11039;50.028;19.938;2023-04-15T10:29:40;0.47;;;0.47;;
21754;SDS011;11039;50.028;19.938;2023-04-15T10:32:06;1.00;;;0.70;;
21754;SDS011;11039;50.028;19.938;2023-04-15T10:34:32;1.23;;;0.70;;
21754;SDS011;11039;50.028;19.938;2023-04-15T10:37:00;1.42;;;0.70;;
21754;SDS011;11039;50.028;19.938;2023-04-15T10:42:09;0.98;;;0.85;;
21754;SDS011;11039;50.028;19.938;2023-04-15T10:44:36;3.97;;;0.80;;
21754;SDS011;11039;50.028;19.938;2023-04-15T10:47:09;1.95;;;0.80;;
21754;SDS011;11039;50.028;19.938;2023-04-15T10:49:41;0.60;;;0.60;;
21754;SDS011;11039;50.028;19.938;2023-04-15T10:52:09;2.20;;;0.77;;
21754;SDS011;11039;50.028;19.938;2023-04-15T10:54:36;2.10;;;0.80;;
21754;SDS011;11039;50.028;19.938;2023-04-15T11:02:15;1.20;;;0.50;;
21754;SDS011;11039;50.028;19.938;2023-04-15T11:04:54;1.17;;;0.68;;
21754;SDS011;11039;50.028;19.938;2023-04-15T11:12:38;1.27;;;0.60;;
21754;SDS011;11039;50.028;19.938;2023-04-15T11:17:50;2.33;;;0.80;;
21754;SDS011;11039;50.028;19.938;2023-04-15T11:20:16;0.90;;;0.50;;
21754;SDS011;11039;50.028;19.938;2023-04-15T11:22:46;0.90;;;0.38;;
21754;SDS011;11039;50.028;19.938;2023-04-15T11:25:26;0.30;;;0.30;;
21754;SDS011;11039;50.028;19.938;2023-04-15T11:27:52;1.05;;;0.50;;
21754;SDS011;11039;50.028;19.938;2023-04-15T11:30:22;0.70;;;0.35;;
21754;SDS011;11039;50.028;19.938;2023-04-15T11:32:49;2.15;;;0.60;;
21754;SDS011;11039;50.028;19.938;2023-04-15T11:35:15;2.55;;;0.70;;
21754;SDS011;11039;50.028;19.938;2023-04-15T11:37:42;1.63;;;0.40;;
21754;SDS011;11039;50.028;19.938;2023-04-15T11:40:08;2.75;;;0.85;;
21754;SDS011;11039;50.028;19.938;2023-04-15T11:42:35;2.47;;;0.70;;
21754;SDS011;11039;50.028;19.938;2023-04-15T11:45:07;3.10;;;0.68;;
21754;SDS011;11039;50.028;19.938;2023-04-15T11:47:36;0.90;;;0.45;;
21754;SDS011;11039;50.028;19.938;2023-04-15T11:52:51;2.35;;;0.60;;
21754;SDS011;11039;50.028;19.938;2023-04-15T11:55:17;2.30;;;0.60;;
21754;SDS011;11039;50.028;19.938;2023-04-15T11:57:43;1.15;;;0.50;;
21754;SDS011;11039;50.028;19.938;2023-04-15T12:00:10;1.38;;;0.60;;
21754;SDS011;11039;50.028;19.938;2023-04-15T12:02:37;1.40;;;0.47;;
21754;SDS011;11039;50.028;19.938;2023-04-15T12:05:04;1.98;;;0.43;;
21754;SDS011;11039;50.028;19.938;2023-04-15T12:07:30;0.70;;;0.40;;
21754;SDS011;11039;50.028;19.938;2023-04-15T12:09:57;0.70;;;0.40;;
21754;SDS011;11039;50.028;19.938;2023-04-15T12:12:27;0.75;;;0.30;;
21754;SDS011;11039;50.028;19.938;2023-04-15T12:14:55;0.55;;;0.30;;
21754;SDS011;11039;50.028;19.938;2023-04-15T12:17:21;0.80;;;0.32;;
21754;SDS011;11039;50.028;19.938;2023-04-15T12:19:54;1.20;;;0.40;;
21754;SDS011;11039;50.028;19.938;2023-04-15T12:22:20;1.40;;;0.43;;
21754;SDS011;11039;50.028;19.938;2023-04-15T12:24:47;0.35;;;0.35;;
21754;SDS011;11039;50.028;19.938;2023-04-15T12:27:18;0.85;;;0.40;;
21754;SDS011;11039;50.028;19.938;2023-04-15T12:29:45;0.50;;;0.28;;
21754;SDS011;11039;50.028;19.938;2023-04-15T12:32:12;0.85;;;0.30;;
21754;SDS011;11039;50.028;19.938;2023-04-15T12:34:39;0.35;;;0.30;;
21754;SDS011;11039;50.028;19.938;2023-04-15T12:37:06;0.47;;;0.30;;
21754;SDS011;11039;50.028;19.938;2023-04-15T12:39:39;0.60;;;0.30;;
21754;SDS011;11039;50.028;19.938;2023-04-15T12:42:05;0.55;;;0.38;;
21754;SDS011;11039;50.028;19.938;2023-04-15T12:44:32;0.30;;;0.25;;
21754;SDS011;11039;50.028;19.938;2023-04-15T12:46:58;0.50;;;0.45;;
21754;SDS011;11039;50.028;19.938;2023-04-15T12:49:24;0.30;;;0.30;;
21754;SDS011;11039;50.028;19.938;2023-04-15T12:51:51;1.15;;;0.40;;
21754;SDS011;11039;50.028;19.938;2023-04-15T12:54:18;0.73;;;0.40;;
21754;SDS011;11039;50.028;19.938;2023-04-15T12:56:45;0.40;;;0.40;;
21754;SDS011;11039;50.028;19.938;2023-04-15T12:59:11;0.63;;;0.50;;
21754;SDS011;11039;50.028;19.938;2023-04-15T13:01:38;0.93;;;0.50;;
21754;SDS011;11039;50.028;19.938;2023-04-15T13:04:04;0.55;;;0.40;;
21754;SDS011;11039;50.028;19.938;2023-04-15T13:06:30;1.00;;;0.40;;
21754;SDS011;11039;50.028;19.938;2023-04-15T13:09:00;0.60;;;0.50;;
21754;SDS011;11039;50.028;19.938;2023-04-15T13:11:26;0.65;;;0.50;;
21754;SDS011;11039;50.028;19.938;2023-04-15T13:13:55;1.17;;;0.50;;
21754;SDS011;11039;50.028;19.938;2023-04-15T13:16:21;1.13;;;0.50;;
21754;SDS011;11039;50.028;19.938;2023-04-15T13:18:47;1.25;;;0.50;;
21754;SDS011;11039;50.028;19.938;2023-04-15T13:21:13;1.25;;;0.80;;
21754;SDS011;11039;50.028;19.938;2023-04-15T13:23:40;1.20;;;0.70;;
21754;SDS011;11039;50.028;19.938;2023-04-15T13:26:06;1.33;;;0.70;;
21754;SDS011;11039;50.028;19.938;2023-04-15T13:28:32;1.15;;;0.60;;
21754;SDS011;11039;50.028;19.938;2023-04-15T13:30:59;0.52;;;0.40;;
21754;SDS011;11039;50.028;19.938;2023-04-15T13:33:26;13.40;;;0.95;;
21754;SDS011;11039;50.028;19.938;2023-04-15T13:35:52;0.93;;;0.60;;
21754;SDS011;11039;50.028;19.938;2023-04-15T13:38:18;1.33;;;0.90;;
21754;SDS011;11039;50.028;19.938;2023-04-15T13:40:44;0.95;;;0.70;;
21754;SDS011;11039;50.028;19.938;2023-04-15T13:43:10;0.90;;;0.63;;
21754;SDS011;11039;50.028;19.938;2023-04-15T13:45:36;1.30;;;0.80;;
21754;SDS011;11039;50.028;19.938;2023-04-15T13:48:03;1.20;;;0.80;;
21754;SDS011;11039;50.028;19.938;2023-04-15T13:50:29;1.05;;;0.80;;
21754;SDS011;11039;50.028;19.938;2023-04-15T13:52:55;1.40;;;0.90;;
21754;SDS011;11039;50.028;19.938;2023-04-15T13:55:21;1.20;;;0.70;;
21754;SDS011;11039;50.028;19.938;2023-04-15T13:57:47;1.63;;;0.70;;
21754;SDS011;11039;50.028;19.938;2023-04-15T14:00:14;1.48;;;0.80;;
21754;SDS011;11039;50.028;19.938;2023-04-15T14:02:41;0.82;;;0.60;;
21754;SDS011;11039;50.028;19.938;2023-04-15T14:05:07;0.65;;;0.60;;
21754;SDS011;11039;50.028;19.938;2023-04-15T14:07:33;1.40;;;0.75;;
21754;SDS011;11039;50.028;19.938;2023-04-15T14:09:59;0.63;;;0.60;;
21754;SDS011;11039;50.028;19.938;2023-04-15T14:12:25;0.70;;;0.63;;
21754;SDS011;11039;50.028;19.938;2023-04-15T14:14:52;1.27;;;0.80;;
21754;SDS011;11039;50.028;19.938;2023-04-15T14:17:18;1.10;;;0.70;;
21754;SDS011;11039;50.028;19.938;2023-04-15T14:19:44;0.85;;;0.70;;
21754;SDS011;11039;50.028;19.938;2023-04-15T14:22:10;1.10;;;0.60;;
21754;SDS011;11039;50.028;19.938;2023-04-15T14:24:36;1.52;;;0.75;;
21754;SDS011;11039;50.028;19.938;2023-04-15T14:27:02;1.30;;;1.00;;
21754;SDS011;11039;50.028;19.938;2023-04-15T14:29:28;1.40;;;0.80;;
21754;SDS011;11039;50.028;19.938;2023-04-15T14:31:55;1.98;;;0.63;;
21754;SDS011;11039;50.028;19.938;2023-04-15T14:34:22;1.35;;;0.68;;
21754;SDS011;11039;50.028;19.938;2023-04-15T14:36:49;1.20;;;0.85;;
21754;SDS011;11039;50.028;19.938;2023-04-15T14:39:17;2.90;;;1.10;;
21754;SDS011;11039;50.028;19.938;2023-04-15T14:41:43;1.00;;;0.60;;
21754;SDS011;11039;50.028;19.938;2023-04-15T14:44:09;0.80;;;0.70;;
21754;SDS011;11039;50.028;19.938;2023-04-15T14:46:36;0.85;;;0.68;;
21754;SDS011;11039;50.028;19.938;2023-04-15T14:49:02;1.00;;;0.52;;
21754;SDS011;11039;50.028;19.938;2023-04-15T14:51:29;1.40;;;0.70;;
21754;SDS011;11039;50.028;19.938;2023-04-15T14:53:55;0.95;;;0.77;;